Afrodite — CURM3 — position and weather

sailwx.info

Track history (hours):
 
Tides and Currents Weather Stations Pressure Air Temp Water Temp Dewpoint Dewpoint Depression Visibility Wind Speed Wind Dir Waves Ship Positions

Afrodite

Last reported at 2017-Nov-02 13:54 UTC. Time now 2017-Nov-21 02:47 UTC.
Position N 39°21' W 009°22'.
Warning: this ship's position is 18 days out of date.

Length 26 m.

Type: Fishing. MMSI: 263500170.

Date/timePositionNaut miles runAvg speedWind from/ knotsBaromVisibWave heightAir tempDewpointWater temp
2017-Nov-02 13:54N 39°21' W 009°22'0 0.0
2017-Nov-02 13:30N 39°21' W 009°22'  
2017-Oct-30 20:26N 39°21' W 009°22'2 4.5
2017-Oct-30 20:00N 39°21' W 009°25'5 9.1
2017-Oct-30 19:30N 39°25' W 009°29'4 7.5
2017-Oct-30 19:00N 39°26' W 009°33'0 0.8
2017-Oct-30 18:30N 39°27' W 009°33'0 0.5
2017-Oct-30 17:50N 39°27' W 009°33'1 3.7
2017-Oct-30 17:30N 39°26' W 009°31'0 0.8
2017-Oct-30 16:59N 39°26' W 009°31'0 0.2
2017-Oct-30 16:30N 39°26' W 009°31'2 2.9
2017-Oct-30 15:58N 39°26' W 009°33'3 6.7
2017-Oct-30 15:30N 39°25' W 009°29'1 2.0
2017-Oct-30 15:00N 39°25' W 009°28'6 7.9
2017-Oct-30 14:18N 39°21' W 009°22'0 0.4
2017-Oct-30 13:30N 39°21' W 009°22'  
2017-Oct-27 20:33N 39°21' W 009°22'0 0.2
2017-Oct-27 20:30N 39°21' W 009°22'0 0.0
2017-Oct-27 20:00N 39°21' W 009°22'3 6.1
2017-Oct-27 19:30N 39°23' W 009°26'4 7.5
2017-Oct-27 19:00N 39°26' W 009°29'0 0.2
2017-Oct-27 18:02N 39°26' W 009°28'0 6.3
2017-Oct-27 18:00N 39°26' W 009°29'1 1.0
2017-Oct-27 17:29N 39°26' W 009°28'2 4.4
2017-Oct-27 17:00N 39°24' W 009°30'1 1.8
2017-Oct-27 16:30N 39°23' W 009°30'0 0.3
2017-Oct-27 16:00N 39°23' W 009°29'4 7.9
2017-Oct-27 15:28N 39°21' W 009°25'2 4.3
2017-Oct-27 15:00N 39°21' W 009°22'0 0.0
2017-Oct-26 20:34N 39°21' W 009°22'0 0.0
2017-Oct-26 20:30N 39°21' W 009°22'1 1.2
2017-Oct-26 19:57N 39°21' W 009°23'1 0.1
2017-Oct-26 14:32N 39°21' W 009°22'0 0.0
2017-Oct-26 14:30N 39°21' W 009°22'0 0.0
2017-Oct-26 14:00N 39°21' W 009°22'0 0.0
2017-Oct-25 14:05N 39°21' W 009°22'0 0.0
2017-Oct-25 14:00N 39°21' W 009°22'0 0.0
2017-Oct-25 13:30N 39°21' W 009°22'6 0.4
2017-Oct-24 20:56N 39°15' W 009°24'510.8
2017-Oct-24 20:30N 39°11' W 009°25'510.8
2017-Oct-24 20:00N 39°06' W 009°26'510.8
2017-Oct-24 19:30N 39°00' W 009°27'510.9
2017-Oct-24 19:00N 38°55' W 009°28'1 2.8
2017-Oct-24 18:30N 38°53' W 009°28'0 0.3
2017-Oct-24 18:00N 38°53' W 009°28'0 1.0
2017-Oct-24 17:30N 38°54' W 009°28'1 1.4
2017-Oct-24 17:00N 38°54' W 009°28'0 0.5
2017-Oct-24 16:30N 38°54' W 009°29'0 0.3
2017-Oct-24 16:00N 38°54' W 009°29'1 2.8
2017-Oct-24 15:30N 38°54' W 009°27'0 0.5
2017-Oct-24 15:00N 38°54' W 009°27'0 0.2
2017-Oct-24 14:30N 38°54' W 009°27'5 9.6
2017-Oct-24 14:00N 38°59' W 009°27'510.6
2017-Oct-24 13:30N 39°04' W 009°26'510.7
2017-Oct-24 13:00N 39°09' W 009°24'12 0.8
2017-Oct-23 21:21N 39°21' W 009°22'0 0.0
2017-Oct-23 21:00N 39°21' W 009°22'0 0.0
2017-Oct-23 20:30N 39°21' W 009°22'1 1.4
2017-Oct-23 20:00N 39°21' W 009°23'510.3
2017-Oct-23 19:30N 39°16' W 009°24'510.2
2017-Oct-23 19:00N 39°11' W 009°25'510.2
2017-Oct-23 18:30N 39°06' W 009°26'510.2
2017-Oct-23 18:00N 39°01' W 009°27'5 9.9
2017-Oct-23 17:30N 38°56' W 009°27'2 3.2
2017-Oct-23 17:01N 38°54' W 009°27'0 0.2
2017-Oct-23 16:30N 38°54' W 009°27'1 1.3
2017-Oct-23 16:00N 38°55' W 009°27'2 3.3
2017-Oct-23 15:31N 38°56' W 009°26'0 0.7
2017-Oct-23 15:00N 38°57' W 009°27'0 0.2
2017-Oct-23 14:30N 38°57' W 009°26'2 3.3
2017-Oct-23 14:00N 38°58' W 009°27'  
Track history (hours):
 
Tides and Currents Weather Stations Pressure Air Temp Water Temp Dewpoint Dewpoint Depression Visibility Wind Speed Wind Dir Waves Ship Positions

Afrodite

Last reported at 2017-Nov-02 13:54 UTC. Time now 2017-Nov-21 02:47 UTC.
Position N 39°21' W 009°22'.
Warning: this ship's position is 18 days out of date.

Length 26 m.

Type: Fishing. MMSI: 263500170.

Date/timePositionNaut miles runAvg speedWind from/ knotsBaromVisibWave heightAir tempDewpointWater temp
2017-Nov-02 13:54N 39°21' W 009°22'0 0.0
2017-Nov-02 13:30N 39°21' W 009°22'  
2017-Oct-30 20:26N 39°21' W 009°22'2 4.5
2017-Oct-30 20:00N 39°21' W 009°25'5 9.1
2017-Oct-30 19:30N 39°25' W 009°29'4 7.5
2017-Oct-30 19:00N 39°26' W 009°33'0 0.8
2017-Oct-30 18:30N 39°27' W 009°33'0 0.5
2017-Oct-30 17:50N 39°27' W 009°33'1 3.7
2017-Oct-30 17:30N 39°26' W 009°31'0 0.8
2017-Oct-30 16:59N 39°26' W 009°31'0 0.2
2017-Oct-30 16:30N 39°26' W 009°31'2 2.9
2017-Oct-30 15:58N 39°26' W 009°33'3 6.7
2017-Oct-30 15:30N 39°25' W 009°29'1 2.0
2017-Oct-30 15:00N 39°25' W 009°28'6 7.9
2017-Oct-30 14:18N 39°21' W 009°22'0 0.4
2017-Oct-30 13:30N 39°21' W 009°22'  
2017-Oct-27 20:33N 39°21' W 009°22'0 0.2
2017-Oct-27 20:30N 39°21' W 009°22'0 0.0
2017-Oct-27 20:00N 39°21' W 009°22'3 6.1
2017-Oct-27 19:30N 39°23' W 009°26'4 7.5
2017-Oct-27 19:00N 39°26' W 009°29'0 0.2
2017-Oct-27 18:02N 39°26' W 009°28'0 6.3
2017-Oct-27 18:00N 39°26' W 009°29'1 1.0
2017-Oct-27 17:29N 39°26' W 009°28'2 4.4
2017-Oct-27 17:00N 39°24' W 009°30'1 1.8
2017-Oct-27 16:30N 39°23' W 009°30'0 0.3
2017-Oct-27 16:00N 39°23' W 009°29'4 7.9
2017-Oct-27 15:28N 39°21' W 009°25'2 4.3
2017-Oct-27 15:00N 39°21' W 009°22'0 0.0
2017-Oct-26 20:34N 39°21' W 009°22'0 0.0
2017-Oct-26 20:30N 39°21' W 009°22'1 1.2
2017-Oct-26 19:57N 39°21' W 009°23'1 0.1
2017-Oct-26 14:32N 39°21' W 009°22'0 0.0
2017-Oct-26 14:30N 39°21' W 009°22'0 0.0
2017-Oct-26 14:00N 39°21' W 009°22'0 0.0
2017-Oct-25 14:05N 39°21' W 009°22'0 0.0
2017-Oct-25 14:00N 39°21' W 009°22'0 0.0
2017-Oct-25 13:30N 39°21' W 009°22'6 0.4
2017-Oct-24 20:56N 39°15' W 009°24'510.8
2017-Oct-24 20:30N 39°11' W 009°25'510.8
2017-Oct-24 20:00N 39°06' W 009°26'510.8
2017-Oct-24 19:30N 39°00' W 009°27'510.9
2017-Oct-24 19:00N 38°55' W 009°28'1 2.8
2017-Oct-24 18:30N 38°53' W 009°28'0 0.3
2017-Oct-24 18:00N 38°53' W 009°28'0 1.0
2017-Oct-24 17:30N 38°54' W 009°28'1 1.4
2017-Oct-24 17:00N 38°54' W 009°28'0 0.5
2017-Oct-24 16:30N 38°54' W 009°29'0 0.3
2017-Oct-24 16:00N 38°54' W 009°29'1 2.8
2017-Oct-24 15:30N 38°54' W 009°27'0 0.5
2017-Oct-24 15:00N 38°54' W 009°27'0 0.2
2017-Oct-24 14:30N 38°54' W 009°27'5 9.6
2017-Oct-24 14:00N 38°59' W 009°27'510.6
2017-Oct-24 13:30N 39°04' W 009°26'510.7
2017-Oct-24 13:00N 39°09' W 009°24'12 0.8
2017-Oct-23 21:21N 39°21' W 009°22'0 0.0
2017-Oct-23 21:00N 39°21' W 009°22'0 0.0
2017-Oct-23 20:30N 39°21' W 009°22'1 1.4
2017-Oct-23 20:00N 39°21' W 009°23'510.3
2017-Oct-23 19:30N 39°16' W 009°24'510.2
2017-Oct-23 19:00N 39°11' W 009°25'510.2
2017-Oct-23 18:30N 39°06' W 009°26'510.2
2017-Oct-23 18:00N 39°01' W 009°27'5 9.9
2017-Oct-23 17:30N 38°56' W 009°27'2 3.2
2017-Oct-23 17:01N 38°54' W 009°27'0 0.2
2017-Oct-23 16:30N 38°54' W 009°27'1 1.3
2017-Oct-23 16:00N 38°55' W 009°27'2 3.3
2017-Oct-23 15:31N 38°56' W 009°26'0 0.7
2017-Oct-23 15:00N 38°57' W 009°27'0 0.2
2017-Oct-23 14:30N 38°57' W 009°26'2 3.3
2017-Oct-23 14:00N 38°58' W 009°27'  

Dump ship's entire track history